Time;durP1;ratioP1;P1;durP2;ratioP2;P2;SDS_P1;SDS_P2;PMS_P1;PMS_P2;Temp;Humidity;BMP_temperature;BMP_pressure;BME280_temperature;BME280_humidity;BME280_pressure;Samples;Min_cycle;Max_cycle;Signal;HPM_P1;HPM_P2
2024/03/14 00:01:26;;;;;;;;;;;17.90;64.90;;;;;;5114496;28;19943;-69
2024/03/14 00:03:54;;;;;;;;;;;17.80;65.30;;;;;;5114664;28;19919;-69
2024/03/14 00:06:20;;;;;;;;;;;17.80;65.40;;;;;;5115131;28;19914;-68
2024/03/14 00:08:45;;;;;;;;;;;17.80;65.40;;;;;;5114529;28;19908;-68
2024/03/14 00:11:11;;;;;;;;;;;17.80;65.40;;;;;;5114528;28;19947;-69
2024/03/14 00:13:36;;;;;;;;;;;17.80;65.20;;;;;;5114487;28;19907;-68
2024/03/14 00:16:05;;;;;;;;;;;17.80;65.50;;;;;;5114369;28;19953;-69
2024/03/14 00:18:31;;;;;;;;;;;17.80;65.20;;;;;;5114319;28;19918;-69
2024/03/14 00:20:57;;;;;;;;;;;17.90;65.50;;;;;;5114340;28;19908;-69
2024/03/14 00:23:23;;;;;;;;;;;17.80;65.40;;;;;;5114197;28;19915;-69
2024/03/14 00:25:51;;;;;;;;;;;17.70;65.30;;;;;;5114444;28;19908;-69
2024/03/14 00:28:16;;;;;;;;;;;17.80;65.50;;;;;;5114377;28;19908;-69
2024/03/14 00:30:42;;;;;;;;;;;17.80;65.40;;;;;;5114081;28;19919;-69
2024/03/14 00:33:07;;;;;;;;;;;17.80;65.40;;;;;;5114025;28;20362;-69
2024/03/14 00:35:33;;;;;;;;;;;17.80;65.40;;;;;;5114435;28;19908;-69
2024/03/14 00:37:59;;;;;;;;;;;17.90;65.30;;;;;;5113805;28;19914;-69
2024/03/14 00:40:24;;;;;;;;;;;17.70;65.30;;;;;;5113857;28;20007;-69
2024/03/14 00:42:51;;;;;;;;;;;17.80;65.30;;;;;;5113794;28;20002;-69
2024/03/14 00:45:19;;;;;;;;;;;17.80;64.80;;;;;;5113732;28;19943;-69
2024/03/14 00:47:45;;;;;;;;;;;17.70;65.20;;;;;;5113754;28;19907;-69
2024/03/14 00:50:11;;;;;;;;;;;17.80;65.40;;;;;;5113595;28;20011;-69
2024/03/14 00:52:37;;;;;;;;;;;17.80;65.10;;;;;;5113536;28;20352;-69
2024/03/14 00:55:04;;;;;;;;;;;17.80;65.20;;;;;;5113538;28;19912;-69
2024/03/14 00:57:30;;;;;;;;;;;17.70;64.90;;;;;;5113555;28;19951;-69
2024/03/14 00:59:55;;;;;;;;;;;17.80;65.60;;;;;;5113518;28;20357;-69
2024/03/14 01:02:21;;;;;;;;;;;17.80;64.80;;;;;;5113144;28;19924;-68
2024/03/14 01:04:49;;;;;;;;;;;17.70;65.60;;;;;;5113885;28;20278;-69
2024/03/14 01:07:15;;;;;;;;;;;17.70;65.60;;;;;;5113663;28;19953;-69
2024/03/14 01:09:41;;;;;;;;;;;17.70;64.90;;;;;;5113502;28;19908;-69
2024/03/14 01:12:08;;;;;;;;;;;17.70;65.30;;;;;;5113194;28;20428;-68
2024/03/14 01:14:34;;;;;;;;;;;17.70;65.40;;;;;;5113475;28;19908;-68
2024/03/14 01:17:01;;;;;;;;;;;17.70;65.30;;;;;;5113150;28;19912;-68
2024/03/14 01:19:28;;;;;;;;;;;17.80;65.40;;;;;;5113438;28;20231;-68
2024/03/14 01:21:53;;;;;;;;;;;17.70;64.70;;;;;;5113083;28;19915;-68
2024/03/14 01:24:19;;;;;;;;;;;17.70;65.40;;;;;;5113099;28;19907;-68
2024/03/14 01:26:44;;;;;;;;;;;17.70;65.20;;;;;;5112961;28;19961;-68
2024/03/14 01:29:10;;;;;;;;;;;17.70;65.30;;;;;;5112938;28;20281;-69
2024/03/14 01:31:36;;;;;;;;;;;17.70;65.00;;;;;;5113465;28;20389;-69
2024/03/14 01:34:01;;;;;;;;;;;17.70;65.30;;;;;;5112919;28;19907;-69
2024/03/14 01:36:27;;;;;;;;;;;17.70;65.10;;;;;;5112919;28;19970;-68
2024/03/14 01:38:52;;;;;;;;;;;17.70;65.20;;;;;;5112812;28;20365;-69
2024/03/14 01:41:21;;;;;;;;;;;17.60;65.30;;;;;;5112837;28;19908;-69
2024/03/14 01:44:07;;;;;;;;;;;17.70;65.20;;;;;;5112800;28;19912;-68
2024/03/14 01:46:33;;;;;;;;;;;17.70;64.80;;;;;;5111848;28;20060;-68
2024/03/14 01:48:59;;;;;;;;;;;17.70;65.20;;;;;;5112706;28;19956;-68
2024/03/14 01:51:26;;;;;;;;;;;17.60;65.10;;;;;;5112229;28;19939;-69
2024/03/14 01:53:52;;;;;;;;;;;17.70;65.40;;;;;;5112657;28;19915;-69
2024/03/14 01:56:21;;;;;;;;;;;17.70;65.30;;;;;;5112639;28;19994;-69
2024/03/14 01:58:50;;;;;;;;;;;17.70;65.50;;;;;;5112688;28;20008;-69
2024/03/14 02:01:16;;;;;;;;;;;17.70;64.90;;;;;;5112825;28;19908;-68
2024/03/14 02:03:46;;;;;;;;;;;17.60;65.90;;;;;;5112533;28;19972;-69
2024/03/14 02:06:18;;;;;;;;;;;17.60;65.40;;;;;;5112848;28;19915;-68
2024/03/14 02:08:44;;;;;;;;;;;17.60;65.50;;;;;;5112824;28;19908;-69
2024/03/14 02:11:10;;;;;;;;;;;17.60;65.50;;;;;;5112669;28;20392;-69
2024/03/14 02:13:36;;;;;;;;;;;17.60;65.50;;;;;;5112390;28;19960;-68
2024/03/14 02:16:02;;;;;;;;;;;17.70;65.40;;;;;;5112618;28;19908;-68
2024/03/14 02:18:28;;;;;;;;;;;17.60;65.30;;;;;;5112921;28;19908;-68
2024/03/14 02:20:55;;;;;;;;;;;17.60;65.40;;;;;;5112635;28;20003;-68
2024/03/14 02:23:20;;;;;;;;;;;17.60;65.20;;;;;;5112567;28;19919;-68
2024/03/14 02:25:46;;;;;;;;;;;17.60;65.50;;;;;;5112658;28;19908;-68
2024/03/14 02:28:13;;;;;;;;;;;17.60;65.40;;;;;;5112555;28;20255;-68
2024/03/14 02:30:39;;;;;;;;;;;17.70;65.30;;;;;;5112627;28;19981;-68
2024/03/14 02:33:05;;;;;;;;;;;17.90;65.70;;;;;;5112357;28;20352;-69
2024/03/14 02:35:30;;;;;;;;;;;17.70;65.60;;;;;;5112294;28;19951;-69
2024/03/14 02:37:56;;;;;;;;;;;17.60;65.30;;;;;;5112265;28;19915;-69
2024/03/14 02:40:22;;;;;;;;;;;17.60;65.60;;;;;;5112149;28;19908;-69
2024/03/14 02:42:48;;;;;;;;;;;17.50;65.20;;;;;;5112324;28;20120;-69
2024/03/14 02:45:20;;;;;;;;;;;17.60;65.70;;;;;;5112196;28;20461;-69
2024/03/14 02:47:46;;;;;;;;;;;17.60;64.00;;;;;;5112696;28;20010;-69
2024/03/14 02:50:12;;;;;;;;;;;17.60;65.50;;;;;;5112057;28;19915;-69
2024/03/14 02:52:38;;;;;;;;;;;17.60;65.00;;;;;;5112078;28;19908;-69
2024/03/14 02:55:07;;;;;;;;;;;17.60;65.40;;;;;;5112119;28;19933;-69
2024/03/14 02:57:35;;;;;;;;;;;17.60;64.80;;;;;;5112153;28;20289;-69
2024/03/14 03:00:04;;;;;;;;;;;17.60;61.40;;;;;;5112204;28;19987;-69
2024/03/14 03:02:30;;;;;;;;;;;17.60;64.60;;;;;;5112806;28;19927;-69
2024/03/14 03:04:56;;;;;;;;;;;17.60;65.20;;;;;;5115823;28;19907;-69
2024/03/14 03:07:22;;;;;;;;;;;17.60;65.10;;;;;;5115714;28;19933;-69
2024/03/14 03:09:49;;;;;;;;;;;17.50;65.00;;;;;;5115911;28;19930;-69
2024/03/14 03:12:14;;;;;;;;;;;17.60;65.00;;;;;;5115535;28;19916;-69
2024/03/14 03:14:39;;;;;;;;;;;17.60;65.20;;;;;;5115614;28;20255;-69
2024/03/14 03:17:05;;;;;;;;;;;17.50;65.00;;;;;;5116015;28;19915;-69
2024/03/14 03:19:31;;;;;;;;;;;17.50;64.90;;;;;;5115506;28;19908;-69
2024/03/14 03:21:58;;;;;;;;;;;17.50;65.40;;;;;;5115366;28;20277;-69
2024/03/14 03:24:24;;;;;;;;;;;17.50;65.10;;;;;;5115345;28;20014;-69
2024/03/14 03:26:50;;;;;;;;;;;17.50;65.20;;;;;;5115443;28;19999;-69
2024/03/14 03:29:16;;;;;;;;;;;17.50;65.00;;;;;;5115316;28;19927;-70
2024/03/14 03:31:42;;;;;;;;;;;17.50;65.00;;;;;;5115285;28;19940;-69
2024/03/14 03:34:07;;;;;;;;;;;17.50;65.00;;;;;;5115509;28;20446;-69
2024/03/14 03:36:33;;;;;;;;;;;17.50;65.00;;;;;;5115261;28;19908;-69
2024/03/14 03:39:00;;;;;;;;;;;17.50;64.90;;;;;;5115120;28;19908;-69
2024/03/14 03:41:29;;;;;;;;;;;17.50;65.00;;;;;;5115092;28;19908;-69
2024/03/14 03:43:55;;;;;;;;;;;17.40;65.30;;;;;;5115590;28;19907;-69
2024/03/14 03:46:21;;;;;;;;;;;17.50;65.20;;;;;;5114923;28;19939;-69
2024/03/14 03:48:46;;;;;;;;;;;17.50;64.80;;;;;;5114896;28;19907;-69
2024/03/14 03:51:13;;;;;;;;;;;17.50;64.80;;;;;;5114958;28;20007;-69
2024/03/14 03:53:38;;;;;;;;;;;17.50;64.80;;;;;;5114857;28;20346;-69
2024/03/14 03:56:04;;;;;;;;;;;17.50;64.90;;;;;;5114789;28;19955;-69
2024/03/14 03:58:33;;;;;;;;;;;17.60;64.90;;;;;;5114749;28;19943;-69
2024/03/14 04:01:10;;;;;;;;;;;17.70;65.00;;;;;;5114644;28;19907;-69
2024/03/14 04:03:36;;;;;;;;;;;17.50;64.30;;;;;;5114586;28;19919;-69
2024/03/14 04:06:01;;;;;;;;;;;17.40;64.90;;;;;;5114612;28;19976;-69
2024/03/14 04:08:28;;;;;;;;;;;17.50;65.00;;;;;;5114440;28;19908;-69
2024/03/14 04:10:54;;;;;;;;;;;18.40;65.40;;;;;;5114360;28;19955;-69
2024/03/14 04:13:19;;;;;;;;;;;17.50;64.40;;;;;;5114532;28;19918;-69
2024/03/14 04:15:46;;;;;;;;;;;17.40;64.80;;;;;;5114359;28;20010;-69
2024/03/14 04:18:12;;;;;;;;;;;17.40;64.80;;;;;;5114271;28;20035;-69
2024/03/14 04:20:37;;;;;;;;;;;17.50;64.80;;;;;;5114307;28;19916;-69
2024/03/14 04:23:05;;;;;;;;;;;17.40;65.00;;;;;;5114286;28;19908;-69
2024/03/14 04:25:31;;;;;;;;;;;17.40;64.60;;;;;;5114181;28;20278;-68
2024/03/14 04:27:56;;;;;;;;;;;17.50;65.10;;;;;;5114207;28;20274;-68
2024/03/14 04:30:23;;;;;;;;;;;17.40;64.80;;;;;;5114061;28;19923;-68
2024/03/14 04:32:51;;;;;;;;;;;17.40;65.20;;;;;;5113988;28;19908;-68
2024/03/14 04:35:20;;;;;;;;;;;17.30;61.20;;;;;;5114007;28;19914;-68
2024/03/14 04:37:49;;;;;;;;;;;17.10;65.00;;;;;;5113962;28;19908;-68
2024/03/14 04:40:19;;;;;;;;;;;17.30;65.00;;;;;;5113875;28;19907;-68
2024/03/14 04:42:44;;;;;;;;;;;17.40;64.90;;;;;;5114403;28;19908;-68
2024/03/14 04:45:11;;;;;;;;;;;17.40;65.10;;;;;;5114004;28;19912;-68
2024/03/14 04:47:37;;;;;;;;;;;17.30;65.40;;;;;;5113770;28;19915;-68
2024/03/14 04:50:09;;;;;;;;;;;17.30;65.40;;;;;;5113692;28;19908;-68
2024/03/14 04:52:35;;;;;;;;;;;17.40;61.60;;;;;;5113743;28;19922;-68
2024/03/14 04:55:00;;;;;;;;;;;17.40;65.60;;;;;;5113619;28;19912;-68
2024/03/14 04:57:26;;;;;;;;;;;17.40;65.40;;;;;;5113590;28;20294;-68
2024/03/14 04:59:51;;;;;;;;;;;17.40;65.70;;;;;;5113841;28;20297;-68
2024/03/14 05:02:17;;;;;;;;;;;17.40;65.20;;;;;;5113157;28;20305;-68
2024/03/14 05:04:42;;;;;;;;;;;17.20;65.80;;;;;;5113414;28;19915;-68
2024/03/14 05:07:09;;;;;;;;;;;17.40;65.60;;;;;;5113395;28;19908;-68
2024/03/14 05:09:34;;;;;;;;;;;17.50;64.80;;;;;;5095554;28;20358;-68
2024/03/14 05:12:00;;;;;;;;;;;17.30;65.60;;;;;;5113170;28;19984;-68
2024/03/14 05:14:25;;;;;;;;;;;17.30;66.00;;;;;;5113308;28;19907;-68
2024/03/14 05:16:51;;;;;;;;;;;17.40;66.30;;;;;;5113213;28;19907;-68
2024/03/14 05:19:20;;;;;;;;;;;17.40;66.00;;;;;;5113097;28;19912;-68
2024/03/14 05:21:46;;;;;;;;;;;17.40;66.00;;;;;;5113118;28;19914;-68
2024/03/14 05:24:11;;;;;;;;;;;17.40;65.80;;;;;;5112968;28;19908;-69
2024/03/14 05:26:37;;;;;;;;;;;17.50;65.90;;;;;;5112452;28;19908;-69
2024/03/14 05:29:03;;;;;;;;;;;17.40;66.00;;;;;;5113004;28;19915;-68
2024/03/14 05:31:28;;;;;;;;;;;17.40;65.80;;;;;;5112848;28;19916;-69
2024/03/14 05:33:54;;;;;;;;;;;17.40;66.10;;;;;;5112952;28;19908;-69
2024/03/14 05:36:19;;;;;;;;;;;17.60;66.00;;;;;;5112938;28;19953;-68
2024/03/14 05:38:44;;;;;;;;;;;17.40;65.80;;;;;;5113390;28;19947;-68
2024/03/14 05:41:10;;;;;;;;;;;17.40;65.90;;;;;;5112877;28;19912;-68
2024/03/14 05:43:35;;;;;;;;;;;17.40;66.10;;;;;;5112800;28;19977;-68
2024/03/14 05:46:04;;;;;;;;;;;17.30;65.90;;;;;;5112849;28;19950;-69
2024/03/14 05:48:30;;;;;;;;;;;17.40;65.00;;;;;;5112831;28;20390;-68
2024/03/14 05:50:56;;;;;;;;;;;17.50;66.00;;;;;;5112784;28;19920;-68
2024/03/14 05:53:22;;;;;;;;;;;17.40;65.90;;;;;;5112701;28;20028;-67
2024/03/14 05:55:48;;;;;;;;;;;17.40;66.00;;;;;;5112635;28;19925;-68
2024/03/14 05:58:13;;;;;;;;;;;17.40;65.90;;;;;;5112562;28;19908;-67
2024/03/14 06:00:41;;;;;;;;;;;17.60;65.90;;;;;;5112492;28;19908;-68
2024/03/14 06:03:07;;;;;;;;;;;17.50;65.40;;;;;;5112147;28;19978;-68
2024/03/14 06:05:32;;;;;;;;;;;17.30;65.90;;;;;;5112168;28;19931;-70
2024/03/14 06:07:58;;;;;;;;;;;17.30;65.80;;;;;;5112432;28;19915;-67
2024/03/14 06:10:23;;;;;;;;;;;17.40;65.80;;;;;;5112180;28;19908;-68
2024/03/14 06:12:48;;;;;;;;;;;17.60;66.20;;;;;;5112421;28;19953;-68
2024/03/14 06:15:14;;;;;;;;;;;17.80;66.10;;;;;;5112452;28;19908;-68
2024/03/14 06:17:41;;;;;;;;;;;17.50;66.10;;;;;;5112435;28;19916;-68
2024/03/14 06:20:07;;;;;;;;;;;17.40;65.80;;;;;;5112464;28;20006;-70
2024/03/14 06:22:38;;;;;;;;;;;17.30;62.10;;;;;;5112464;28;19931;-71
2024/03/14 06:25:07;;;;;;;;;;;17.40;65.90;;;;;;5113278;28;19914;-70
2024/03/14 06:27:35;;;;;;;;;;;17.40;65.60;;;;;;5112514;28;19961;-71
2024/03/14 06:30:00;;;;;;;;;;;17.40;61.90;;;;;;5112286;28;19912;-71
2024/03/14 06:32:27;;;;;;;;;;;17.40;65.90;;;;;;5112295;28;20289;-71
2024/03/14 06:34:52;;;;;;;;;;;17.40;65.70;;;;;;5112381;28;19912;-70
2024/03/14 06:37:18;;;;;;;;;;;17.30;65.60;;;;;;5114726;28;20313;-71
2024/03/14 06:39:45;;;;;;;;;;;17.30;65.80;;;;;;5116397;28;20281;-70
2024/03/14 06:42:10;;;;;;;;;;;17.40;65.70;;;;;;5116280;28;19948;-69
2024/03/14 06:44:36;;;;;;;;;;;17.40;66.00;;;;;;5116509;28;19931;-72
2024/03/14 06:47:01;;;;;;;;;;;17.30;65.60;;;;;;5116135;28;19908;-70
2024/03/14 06:49:27;;;;;;;;;;;17.30;65.30;;;;;;5116212;28;19954;-70
2024/03/14 06:51:52;;;;;;;;;;;17.30;65.70;;;;;;5097741;28;19968;-70
2024/03/14 06:54:18;;;;;;;;;;;17.30;65.40;;;;;;5116594;28;19915;-70
2024/03/14 06:56:45;;;;;;;;;;;17.30;65.30;;;;;;5116002;28;19914;-68
2024/03/14 06:59:12;;;;;;;;;;;17.30;65.30;;;;;;5116213;28;19999;-70
2024/03/14 07:01:38;;;;;;;;;;;17.30;64.90;;;;;;5115606;28;19915;-70
2024/03/14 07:04:04;;;;;;;;;;;17.30;65.20;;;;;;5115886;28;19908;-71
2024/03/14 07:06:31;;;;;;;;;;;17.40;65.70;;;;;;5115994;28;19915;-73
2024/03/14 07:08:57;;;;;;;;;;;17.30;65.30;;;;;;5115799;28;19911;-72
2024/03/14 07:11:25;;;;;;;;;;;17.30;65.70;;;;;;5116357;28;20262;-72
2024/03/14 07:13:56;;;;;;;;;;;17.30;65.60;;;;;;5097536;28;19912;-70
2024/03/14 07:16:22;;;;;;;;;;;17.30;61.50;;;;;;5115645;28;20003;-73
2024/03/14 07:18:48;;;;;;;;;;;17.30;65.30;;;;;;5097369;28;19950;-72
2024/03/14 07:21:14;;;;;;;;;;;17.20;65.40;;;;;;5115530;28;19908;-72
2024/03/14 07:23:40;;;;;;;;;;;17.30;65.10;;;;;;5115999;28;19912;-72
2024/03/14 07:26:05;;;;;;;;;;;17.20;65.40;;;;;;5115503;28;19953;-71
2024/03/14 07:28:31;;;;;;;;;;;17.20;65.10;;;;;;5115481;28;19923;-72
2024/03/14 07:30:57;;;;;;;;;;;17.20;65.50;;;;;;5115468;28;19920;-73
2024/03/14 07:33:22;;;;;;;;;;;17.20;65.00;;;;;;5097175;28;20009;-73
2024/03/14 07:35:48;;;;;;;;;;;17.20;65.20;;;;;;5116686;28;19908;-72
2024/03/14 07:38:14;;;;;;;;;;;17.20;65.00;;;;;;5115418;28;19915;-71
2024/03/14 07:40:40;;;;;;;;;;;17.10;65.10;;;;;;5115388;28;19949;-72
2024/03/14 07:43:05;;;;;;;;;;;17.20;65.10;;;;;;5115203;28;19924;-72
2024/03/14 07:45:31;;;;;;;;;;;17.20;65.30;;;;;;5115185;28;20288;-71
2024/03/14 07:47:56;;;;;;;;;;;17.20;65.20;;;;;;5114395;28;19915;-71
2024/03/14 07:50:22;;;;;;;;;;;17.30;64.70;;;;;;5115464;28;20381;-71
2024/03/14 07:52:48;;;;;;;;;;;17.20;65.00;;;;;;5115043;28;20331;-72
2024/03/14 07:55:16;;;;;;;;;;;17.30;65.20;;;;;;5114913;28;19908;-72
2024/03/14 07:57:42;;;;;;;;;;;17.30;65.20;;;;;;5114853;28;19976;-71
2024/03/14 08:00:08;;;;;;;;;;;17.30;65.30;;;;;;5114972;28;20357;-71
2024/03/14 08:02:34;;;;;;;;;;;17.30;64.90;;;;;;5114660;28;19920;-72
2024/03/14 08:05:03;;;;;;;;;;;17.20;65.40;;;;;;5114818;28;19908;-72
2024/03/14 08:07:29;;;;;;;;;;;17.30;65.40;;;;;;5114831;28;20313;-72
2024/03/14 08:09:57;;;;;;;;;;;17.40;65.50;;;;;;5096442;28;19908;-71
2024/03/14 08:12:24;;;;;;;;;;;17.20;65.50;;;;;;5114615;28;20024;-72
2024/03/14 08:14:49;;;;;;;;;;;17.20;65.50;;;;;;5114647;28;19988;-71
2024/03/14 08:17:15;;;;;;;;;;;17.30;65.70;;;;;;5114682;28;20462;-71
2024/03/14 08:19:41;;;;;;;;;;;17.30;65.60;;;;;;5114791;28;20392;-71
2024/03/14 08:22:08;;;;;;;;;;;17.30;65.80;;;;;;5114804;28;19908;-71
2024/03/14 08:24:46;;;;;;;;;;;17.20;65.60;;;;;;5114389;28;19908;-72
2024/03/14 08:27:12;;;;;;;;;;;17.30;64.80;;;;;;5114264;28;19915;-71
2024/03/14 08:29:39;;;;;;;;;;;17.30;65.50;;;;;;5114289;28;19908;-71
2024/03/14 08:32:05;;;;;;;;;;;17.30;65.70;;;;;;5114130;28;19941;-75
2024/03/14 08:34:31;;;;;;;;;;;17.30;65.50;;;;;;5114008;28;19943;-71
2024/03/14 08:36:57;;;;;;;;;;;17.30;65.90;;;;;;5114762;28;20361;-71
2024/03/14 08:39:22;;;;;;;;;;;17.40;65.80;;;;;;5114053;28;19908;-72
2024/03/14 08:41:48;;;;;;;;;;;17.40;66.10;;;;;;5113945;28;20052;-71
2024/03/14 08:44:14;;;;;;;;;;;17.40;66.00;;;;;;5095848;28;20009;-72
2024/03/14 08:46:40;;;;;;;;;;;17.60;66.20;;;;;;5113878;28;19949;-71
2024/03/14 08:49:06;;;;;;;;;;;17.40;65.90;;;;;;5116041;28;19908;-71
2024/03/14 08:51:37;;;;;;;;;;;17.40;65.90;;;;;;5115638;28;19919;-71
2024/03/14 08:54:09;;;;;;;;;;;17.40;65.90;;;;;;5114077;28;20308;-71
2024/03/14 08:56:35;;;;;;;;;;;17.60;66.30;;;;;;5113680;28;20278;-71
2024/03/14 08:59:02;;;;;;;;;;;17.60;66.40;;;;;;5113514;28;19908;-70
2024/03/14 09:01:31;;;;;;;;;;;17.60;65.70;;;;;;5112617;28;19908;-71
2024/03/14 09:03:59;;;;;;;;;;;17.50;66.60;;;;;;5113728;28;19908;-71
2024/03/14 09:06:28;;;;;;;;;;;17.60;65.50;;;;;;5114057;28;19915;-71
2024/03/14 09:09:00;;;;;;;;;;;17.60;63.60;;;;;;5113434;28;20304;-71
2024/03/14 09:11:30;;;;;;;;;;;17.70;66.20;;;;;;5113481;28;19973;-71
2024/03/14 09:13:56;;;;;;;;;;;17.60;66.20;;;;;;5120303;28;20008;-70
2024/03/14 09:16:21;;;;;;;;;;;17.70;66.10;;;;;;5113521;28;19943;-71
2024/03/14 09:18:47;;;;;;;;;;;17.80;65.90;;;;;;5113487;28;19969;-71
2024/03/14 09:21:13;;;;;;;;;;;17.70;66.00;;;;;;5113335;28;19915;-71
2024/03/14 09:23:39;;;;;;;;;;;17.80;66.00;;;;;;5113591;28;20366;-70
2024/03/14 09:26:04;;;;;;;;;;;17.80;66.00;;;;;;5113289;28;20338;-71
2024/03/14 09:28:31;;;;;;;;;;;17.80;65.50;;;;;;5113553;28;20281;-70
2024/03/14 09:31:00;;;;;;;;;;;18.00;65.80;;;;;;5113361;28;20426;-70
2024/03/14 09:33:30;;;;;;;;;;;17.90;65.00;;;;;;5113208;28;19916;-71
2024/03/14 09:35:56;;;;;;;;;;;18.00;65.40;;;;;;5113663;28;19915;-70
2024/03/14 09:38:22;;;;;;;;;;;17.90;65.90;;;;;;5113148;28;19908;-70
2024/03/14 09:40:47;;;;;;;;;;;18.00;65.90;;;;;;5112977;28;19912;-70
2024/03/14 09:43:14;;;;;;;;;;;18.10;65.80;;;;;;5094849;28;19977;-70
2024/03/14 09:45:41;;;;;;;;;;;18.10;65.80;;;;;;5113086;28;20374;-70
2024/03/14 09:48:07;;;;;;;;;;;17.80;65.60;;;;;;5113009;28;19915;-71
2024/03/14 09:50:35;;;;;;;;;;;18.20;65.80;;;;;;5113162;28;19912;-71
2024/03/14 09:53:02;;;;;;;;;;;18.20;65.70;;;;;;5112886;28;19914;-71
2024/03/14 09:55:30;;;;;;;;;;;17.70;65.70;;;;;;5112840;28;20427;-71
2024/03/14 09:58:04;;;;;;;;;;;18.30;65.60;;;;;;5112733;28;19908;-71
2024/03/14 10:00:30;;;;;;;;;;;18.40;62.10;;;;;;5112869;28;19914;-71
2024/03/14 10:02:56;;;;;;;;;;;18.50;65.10;;;;;;5113147;28;20014;-71
2024/03/14 10:05:22;;;;;;;;;;;18.50;65.30;;;;;;5112838;28;19953;-71
2024/03/14 10:07:48;;;;;;;;;;;18.50;65.00;;;;;;5112741;28;19908;-71
2024/03/14 10:10:15;;;;;;;;;;;18.50;64.90;;;;;;5112984;28;19911;-70
2024/03/14 10:12:48;;;;;;;;;;;18.60;65.10;;;;;;5115972;28;20006;-71
2024/03/14 10:15:16;;;;;;;;;;;18.60;64.80;;;;;;5117315;28;20278;-71
2024/03/14 10:17:42;;;;;;;;;;;18.80;64.60;;;;;;5116824;28;20007;-71
2024/03/14 10:20:12;;;;;;;;;;;18.70;65.00;;;;;;5098402;28;20367;-71
2024/03/14 10:22:38;;;;;;;;;;;18.70;64.00;;;;;;5117091;28;19915;-71
2024/03/14 10:25:05;;;;;;;;;;;18.80;64.50;;;;;;5116941;28;19953;-71
2024/03/14 10:27:32;;;;;;;;;;;18.90;63.80;;;;;;5117103;28;19908;-71
2024/03/14 10:29:59;;;;;;;;;;;19.00;64.10;;;;;;5116954;28;19968;-71
2024/03/14 10:32:25;;;;;;;;;;;19.00;64.10;;;;;;5117364;28;19915;-71
2024/03/14 10:34:51;;;;;;;;;;;19.00;64.10;;;;;;5116517;28;20449;-71
2024/03/14 10:37:22;;;;;;;;;;;19.10;64.10;;;;;;5116461;28;19915;-71
2024/03/14 10:39:52;;;;;;;;;;;19.10;61.70;;;;;;5116852;28;19938;-71
2024/03/14 10:42:20;;;;;;;;;;;19.20;63.90;;;;;;5116521;28;19930;-71
2024/03/14 10:44:46;;;;;;;;;;;19.30;64.10;;;;;;5116723;28;19958;-71
2024/03/14 10:47:14;;;;;;;;;;;19.40;64.20;;;;;;5116716;28;20301;-71
2024/03/14 10:49:42;;;;;;;;;;;19.40;63.90;;;;;;5116511;28;19919;-71
2024/03/14 10:52:14;;;;;;;;;;;19.50;63.70;;;;;;5116426;28;20277;-71
2024/03/14 10:54:44;;;;;;;;;;;19.60;63.80;;;;;;5116528;28;20444;-71
2024/03/14 10:57:11;;;;;;;;;;;19.60;63.70;;;;;;5116448;28;20277;-71
2024/03/14 10:59:38;;;;;;;;;;;19.70;63.40;;;;;;5116560;28;19914;-71
2024/03/14 11:02:04;;;;;;;;;;;19.80;62.80;;;;;;5115704;28;19924;-71
2024/03/14 11:04:32;;;;;;;;;;;19.80;63.40;;;;;;5115974;28;19965;-71
2024/03/14 11:07:00;;;;;;;;;;;19.80;63.20;;;;;;5116236;28;19908;-71
2024/03/14 11:09:27;;;;;;;;;;;19.90;63.40;;;;;;5115805;28;19908;-71
2024/03/14 11:11:55;;;;;;;;;;;19.90;63.20;;;;;;5115918;28;20378;-71
2024/03/14 11:14:30;;;;;;;;;;;20.10;63.30;;;;;;5116098;28;19912;-71
2024/03/14 11:16:57;;;;;;;;;;;20.10;63.10;;;;;;5097624;28;20062;-71
2024/03/14 11:19:22;;;;;;;;;;;20.20;62.70;;;;;;5116006;28;19907;-71
2024/03/14 11:21:48;;;;;;;;;;;20.20;62.60;;;;;;5115625;28;19908;-71
2024/03/14 11:24:16;;;;;;;;;;;20.30;62.80;;;;;;5114451;28;19907;-71
2024/03/14 11:26:43;;;;;;;;;;;20.30;62.50;;;;;;5097305;28;20377;-71
2024/03/14 11:29:11;;;;;;;;;;;20.50;62.40;;;;;;5116208;28;19912;-71
2024/03/14 11:31:56;;;;;;;;;;;20.40;62.10;;;;;;5115336;28;20032;-71
2024/03/14 11:34:22;;;;;;;;;;;20.60;62.40;;;;;;5113883;28;19908;-71
2024/03/14 11:36:50;;;;;;;;;;;20.60;62.00;;;;;;5115454;28;19908;-71
2024/03/14 11:39:20;;;;;;;;;;;20.70;61.80;;;;;;5115669;28;20342;-71
2024/03/14 11:41:46;;;;;;;;;;;20.80;58.70;;;;;;5115358;28;19914;-71
2024/03/14 11:44:14;;;;;;;;;;;20.80;61.40;;;;;;5115444;28;20006;-71
2024/03/14 11:46:39;;;;;;;;;;;20.80;61.60;;;;;;5115247;28;19907;-71
2024/03/14 11:49:15;;;;;;;;;;;20.90;61.30;;;;;;5115178;28;20006;-70
2024/03/14 11:51:41;;;;;;;;;;;20.90;59.00;;;;;;5115109;28;19987;-71
2024/03/14 11:54:10;;;;;;;;;;;21.00;61.00;;;;;;5115071;28;19934;-70
2024/03/14 11:56:40;;;;;;;;;;;21.00;61.20;;;;;;5115771;28;19915;-70
2024/03/14 11:59:08;;;;;;;;;;;21.00;58.10;;;;;;5115028;28;19907;-71
2024/03/14 12:01:37;;;;;;;;;;;21.20;60.10;;;;;;5114636;28;19943;-71
2024/03/14 12:04:02;;;;;;;;;;;21.10;60.50;;;;;;5114937;28;20014;-70
2024/03/14 12:06:28;;;;;;;;;;;21.10;60.60;;;;;;5114902;28;20429;-70
2024/03/14 12:08:53;;;;;;;;;;;21.00;60.70;;;;;;5115142;28;19943;-70
2024/03/14 12:11:20;;;;;;;;;;;21.00;60.90;;;;;;5114697;28;19977;-70
2024/03/14 12:13:49;;;;;;;;;;;20.90;60.90;;;;;;5114785;28;19955;-71
2024/03/14 12:16:14;;;;;;;;;;;20.90;58.40;;;;;;5114629;28;19908;-70
2024/03/14 12:18:40;;;;;;;;;;;20.80;61.10;;;;;;5114614;28;19926;-71
2024/03/14 12:21:10;;;;;;;;;;;20.80;61.30;;;;;;5114548;28;20376;-71
2024/03/14 12:23:36;;;;;;;;;;;20.90;61.30;;;;;;5114506;28;19915;-71
2024/03/14 12:26:05;;;;;;;;;;;21.00;61.00;;;;;;5115009;28;19908;-71
2024/03/14 12:28:32;;;;;;;;;;;21.10;60.80;;;;;;5114615;28;19911;-71
2024/03/14 12:30:57;;;;;;;;;;;21.20;60.50;;;;;;5114399;28;19923;-70
2024/03/14 12:33:23;;;;;;;;;;;21.20;60.50;;;;;;5114260;28;19908;-71
2024/03/14 12:35:49;;;;;;;;;;;21.30;60.30;;;;;;5113975;28;19917;-70
2024/03/14 12:38:18;;;;;;;;;;;21.40;60.10;;;;;;5114321;28;19953;-71
2024/03/14 12:40:48;;;;;;;;;;;21.50;59.80;;;;;;5114078;28;19908;-71
2024/03/14 12:43:17;;;;;;;;;;;21.60;59.80;;;;;;5114324;28;19907;-71
2024/03/14 12:45:46;;;;;;;;;;;21.60;60.10;;;;;;5114025;28;19908;-71
2024/03/14 12:48:13;;;;;;;;;;;21.70;57.20;;;;;;5114034;28;19924;-71
2024/03/14 12:50:39;;;;;;;;;;;21.80;59.60;;;;;;5113862;28;19915;-71
2024/03/14 12:53:05;;;;;;;;;;;21.80;60.00;;;;;;5113885;28;19915;-71
2024/03/14 12:55:31;;;;;;;;;;;21.90;59.40;;;;;;5114301;28;19950;-71
2024/03/14 12:57:57;;;;;;;;;;;21.90;59.40;;;;;;5114073;28;19958;-70
2024/03/14 13:00:26;;;;;;;;;;;22.00;58.90;;;;;;5113819;28;19970;-71
2024/03/14 13:02:56;;;;;;;;;;;22.20;58.50;;;;;;5113516;28;19926;-70
2024/03/14 13:05:25;;;;;;;;;;;22.10;56.30;;;;;;5113663;28;19908;-71
2024/03/14 13:08:07;;;;;;;;;;;22.10;56.30;;;;;;5113886;28;19914;-71
2024/03/14 13:10:36;;;;;;;;;;;22.10;56.50;;;;;;5113789;28;19915;-71
2024/03/14 13:13:02;;;;;;;;;;;22.20;58.30;;;;;;5113569;28;19915;-71
2024/03/14 13:15:28;;;;;;;;;;;21.90;59.50;;;;;;5113520;28;19908;-71
2024/03/14 13:17:54;;;;;;;;;;;21.90;59.60;;;;;;5113503;28;19947;-71
2024/03/14 13:20:25;;;;;;;;;;;21.80;59.80;;;;;;5095168;28;19908;-71
2024/03/14 13:22:54;;;;;;;;;;;21.70;59.90;;;;;;5114168;28;19918;-71
2024/03/14 13:25:21;;;;;;;;;;;21.80;60.20;;;;;;5113615;28;19914;-71
2024/03/14 13:27:48;;;;;;;;;;;21.80;60.00;;;;;;5113331;28;19994;-71
2024/03/14 13:30:14;;;;;;;;;;;21.90;59.70;;;;;;5113300;28;20006;-71
2024/03/14 13:32:39;;;;;;;;;;;22.00;59.50;;;;;;5113170;28;20006;-71
2024/03/14 13:35:10;;;;;;;;;;;22.00;59.40;;;;;;5113274;28;20010;-71
2024/03/14 13:37:38;;;;;;;;;;;22.10;58.80;;;;;;5120037;28;19961;-70
2024/03/14 13:40:11;;;;;;;;;;;22.20;56.60;;;;;;5113141;28;19908;-71
2024/03/14 13:42:39;;;;;;;;;;;22.30;57.10;;;;;;5113316;28;19912;-71
2024/03/14 13:45:05;;;;;;;;;;;22.40;56.10;;;;;;5112966;28;19908;-71
2024/03/14 13:47:32;;;;;;;;;;;22.40;57.80;;;;;;5112668;28;19946;-71
2024/03/14 13:49:58;;;;;;;;;;;22.40;58.20;;;;;;5112993;28;19942;-71
2024/03/14 13:52:24;;;;;;;;;;;22.00;57.90;;;;;;5113423;28;19967;-71
2024/03/14 13:54:50;;;;;;;;;;;22.40;58.10;;;;;;5113152;28;19914;-71
2024/03/14 13:57:19;;;;;;;;;;;22.40;58.20;;;;;;5113144;28;20291;-71
2024/03/14 13:59:47;;;;;;;;;;;22.50;58.20;;;;;;5112847;28;19915;-71
2024/03/14 14:02:13;;;;;;;;;;;22.40;58.20;;;;;;5112688;28;19927;-71
2024/03/14 14:04:39;;;;;;;;;;;22.20;58.80;;;;;;5113065;28;20354;-71
2024/03/14 14:07:05;;;;;;;;;;;22.20;58.80;;;;;;5112547;28;20014;-71
2024/03/14 14:09:31;;;;;;;;;;;22.20;58.60;;;;;;5112775;28;19919;-71
2024/03/14 14:11:57;;;;;;;;;;;22.10;58.10;;;;;;5112880;28;19915;-71
2024/03/14 14:14:23;;;;;;;;;;;22.10;58.40;;;;;;5112624;28;19915;-71